createdAt,value
2022-11-16T00:01:33.241Z,10.47
2022-11-16T00:04:01.919Z,10.48
2022-11-16T00:06:29.291Z,10.47
2022-11-16T00:09:17.725Z,10.47
2022-11-16T00:11:45.129Z,10.47
2022-11-16T00:14:12.319Z,10.55
2022-11-16T00:16:39.506Z,10.50
2022-11-16T00:19:07.535Z,10.54
2022-11-16T00:21:35.111Z,10.54
2022-11-16T00:24:03.131Z,10.55
2022-11-16T00:26:30.529Z,10.63
2022-11-16T00:28:58.222Z,10.64
2022-11-16T00:31:25.606Z,10.67
2022-11-16T00:33:53.181Z,10.66
2022-11-16T00:36:20.170Z,10.68
2022-11-16T00:38:47.566Z,10.67
2022-11-16T00:41:14.708Z,10.67
2022-11-16T00:43:41.959Z,10.71
2022-11-16T00:46:09.695Z,10.73
2022-11-16T00:48:36.944Z,10.72
2022-11-16T00:51:04.768Z,10.78
2022-11-16T00:53:31.993Z,10.76
2022-11-16T00:55:59.076Z,10.76
2022-11-16T00:58:26.065Z,10.77
2022-11-16T01:01:06.704Z,10.73
2022-11-16T01:03:34.805Z,10.73
2022-11-16T01:06:04.391Z,10.75
2022-11-16T01:08:32.381Z,10.78
2022-11-16T01:11:20.241Z,10.76
2022-11-16T01:13:49.471Z,10.77
2022-11-16T01:16:18.180Z,10.77
2022-11-16T01:18:49.181Z,10.78
2022-11-16T01:21:16.981Z,10.76
2022-11-16T01:23:44.682Z,10.74
2022-11-16T01:26:12.903Z,10.73
2022-11-16T01:28:41.491Z,10.77
2022-11-16T01:31:10.515Z,10.75
2022-11-16T01:33:38.599Z,10.74
2022-11-16T01:36:14.993Z,10.70
2022-11-16T01:38:45.871Z,10.66
2022-11-16T01:41:18.224Z,10.68
2022-11-16T01:43:52.696Z,10.68
2022-11-16T01:46:21.371Z,10.68
2022-11-16T01:48:54.719Z,10.70
2022-11-16T01:51:25.191Z,10.70
2022-11-16T01:53:52.412Z,10.70
2022-11-16T01:56:20.626Z,10.70
2022-11-16T01:59:20.451Z,10.71
2022-11-16T02:01:48.987Z,10.70
2022-11-16T02:04:17.644Z,10.70
2022-11-16T02:07:23.535Z,10.71
2022-11-16T02:10:43.580Z,10.71
2022-11-16T02:13:16.534Z,10.70
2022-11-16T02:15:55.943Z,10.69
2022-11-16T02:18:39.102Z,10.71
2022-11-16T02:21:33.694Z,10.72
2022-11-16T02:24:16.081Z,10.68
2022-11-16T02:26:53.604Z,10.66
2022-11-16T02:29:24.742Z,10.65
2022-11-16T02:32:03.270Z,10.66
2022-11-16T02:34:38.426Z,10.62
2022-11-16T02:37:10.935Z,10.62
2022-11-16T02:39:40.246Z,10.69
2022-11-16T02:42:12.005Z,10.70
2022-11-16T02:44:45.008Z,10.74
2022-11-16T02:47:19.222Z,10.78
2022-11-16T02:49:53.595Z,10.79
2022-11-16T02:52:23.856Z,10.79
2022-11-16T02:54:50.805Z,10.79
2022-11-16T02:57:39.189Z,10.82
2022-11-16T03:00:16.203Z,10.84
2022-11-16T03:02:59.043Z,10.83
2022-11-16T03:05:44.468Z,10.83
2022-11-16T03:08:20.950Z,10.82
2022-11-16T03:11:14.087Z,10.82
2022-11-16T03:13:42.387Z,10.83
2022-11-16T03:16:33.539Z,10.83
2022-11-16T03:19:03.983Z,10.80
2022-11-16T03:21:46.630Z,10.81
2022-11-16T03:24:14.565Z,10.79
2022-11-16T03:26:50.974Z,10.77
2022-11-16T03:29:28.042Z,10.79
2022-11-16T03:32:09.634Z,10.77
2022-11-16T03:34:39.341Z,10.77
2022-11-16T03:37:06.993Z,10.78
2022-11-16T03:39:39.449Z,10.76
2022-11-16T03:42:11.960Z,10.75
2022-11-16T03:44:41.037Z,10.74
2022-11-16T03:47:09.403Z,10.73
2022-11-16T03:49:36.377Z,10.71
2022-11-16T03:52:03.965Z,10.69
2022-11-16T03:54:32.533Z,10.70
2022-11-16T03:57:01.064Z,10.67
2022-11-16T03:59:28.035Z,10.64
2022-11-16T04:01:55.096Z,10.62
2022-11-16T04:04:40.702Z,10.60
2022-11-16T04:07:27.824Z,10.58
2022-11-16T04:10:13.392Z,10.59
2022-11-16T04:13:02.553Z,10.63
2022-11-16T04:15:48.275Z,10.62
2022-11-16T04:18:34.371Z,10.67
2022-11-16T04:21:20.545Z,10.67
2022-11-16T04:24:07.539Z,10.65
2022-11-16T04:26:54.316Z,10.64
2022-11-16T04:29:21.646Z,10.64
2022-11-16T04:32:07.666Z,10.62
2022-11-16T04:34:53.286Z,10.60
2022-11-16T04:37:39.477Z,10.59
2022-11-16T04:40:10.354Z,10.61
2022-11-16T04:42:37.581Z,10.62
2022-11-16T04:45:24.310Z,10.66
2022-11-16T04:47:53.217Z,10.67
2022-11-16T04:50:24.193Z,10.65
2022-11-16T04:52:51.667Z,10.68
2022-11-16T04:55:18.865Z,10.68
2022-11-16T04:57:47.927Z,10.69
2022-11-16T05:00:16.131Z,10.68
2022-11-16T05:02:43.998Z,10.67
2022-11-16T05:05:11.727Z,10.67
2022-11-16T05:07:41.915Z,10.66
2022-11-16T05:10:15.983Z,10.67
2022-11-16T05:12:43.568Z,10.64
2022-11-16T05:15:11.209Z,10.64
2022-11-16T05:17:39.701Z,10.63
2022-11-16T05:20:30.764Z,10.61
2022-11-16T05:23:03.277Z,10.61
2022-11-16T05:25:36.627Z,10.63
2022-11-16T05:28:06.569Z,10.65
2022-11-16T05:30:37.526Z,10.63
2022-11-16T05:33:04.792Z,10.65
2022-11-16T05:35:35.344Z,10.65
2022-11-16T05:38:02.309Z,10.62
2022-11-16T05:40:33.118Z,10.60
2022-11-16T05:43:04.199Z,10.58
2022-11-16T05:45:37.572Z,10.57
2022-11-16T05:48:06.698Z,10.58
2022-11-16T05:50:36.285Z,10.55
2022-11-16T05:53:14.766Z,10.57
2022-11-16T05:55:42.087Z,10.57
2022-11-16T05:58:09.259Z,10.54
2022-11-16T06:00:36.602Z,10.53
2022-11-16T06:03:03.876Z,10.51
2022-11-16T06:05:40.301Z,10.51
2022-11-16T06:08:09.242Z,10.46
2022-11-16T06:10:37.247Z,10.38
2022-11-16T06:13:05.497Z,10.34
2022-11-16T06:15:38.257Z,10.28
2022-11-16T06:18:06.733Z,10.18
2022-11-16T06:20:34.376Z,10.16
2022-11-16T06:23:01.465Z,10.11
2022-11-16T06:25:31.005Z,10.08
2022-11-16T06:27:58.842Z,10.08
2022-11-16T06:30:26.478Z,10.04
2022-11-16T06:32:53.758Z,9.97
2022-11-16T06:35:20.830Z,9.94
2022-11-16T06:37:48.430Z,9.97
2022-11-16T06:40:16.071Z,9.92
2022-11-16T06:42:44.487Z,9.92
2022-11-16T06:45:13.691Z,9.86
2022-11-16T06:47:45.665Z,9.77
2022-11-16T06:50:13.091Z,9.74
2022-11-16T06:52:40.024Z,9.66
2022-11-16T06:55:10.651Z,9.75
2022-11-16T06:57:38.036Z,9.71
2022-11-16T07:00:08.110Z,9.57
2022-11-16T07:02:38.187Z,9.60
2022-11-16T07:05:07.616Z,9.48
2022-11-16T07:07:34.811Z,9.43
2022-11-16T07:10:02.448Z,9.45
2022-11-16T07:12:30.991Z,9.83
2022-11-16T07:14:58.778Z,10.35
2022-11-16T07:17:26.338Z,10.84
2022-11-16T07:19:56.591Z,10.53
2022-11-16T07:22:23.619Z,10.96
2022-11-16T07:24:51.789Z,10.47
2022-11-16T07:27:20.318Z,11.29
2022-11-16T07:29:50.228Z,11.76
2022-11-16T07:32:40.077Z,11.71
2022-11-16T07:35:25.742Z,11.02
2022-11-16T07:37:52.825Z,10.98
2022-11-16T07:40:21.489Z,10.42
2022-11-16T07:42:49.717Z,10.10
2022-11-16T07:45:31.991Z,10.03
2022-11-16T07:48:05.887Z,9.98
2022-11-16T07:50:51.642Z,9.88
2022-11-16T07:53:20.083Z,10.43
2022-11-16T07:55:54.157Z,11.54
2022-11-16T07:58:23.666Z,11.95
2022-11-16T08:00:51.770Z,11.28
2022-11-16T08:03:24.374Z,10.91
2022-11-16T08:06:02.861Z,11.15
2022-11-16T08:08:30.700Z,11.45
2022-11-16T08:11:02.593Z,11.35
2022-11-16T08:13:32.185Z,11.26
2022-11-16T08:16:03.706Z,11.64
2022-11-16T08:18:32.819Z,11.44
2022-11-16T08:21:01.948Z,11.43
2022-11-16T08:23:33.672Z,10.92
2022-11-16T08:26:09.890Z,11.11
2022-11-16T08:28:39.125Z,10.85
2022-11-16T08:31:12.997Z,11.03
2022-11-16T08:33:44.309Z,11.07
2022-11-16T08:36:17.466Z,10.72
2022-11-16T08:38:48.077Z,10.67
2022-11-16T08:41:16.291Z,10.56
2022-11-16T08:43:47.396Z,10.70
2022-11-16T08:46:15.718Z,10.66
2022-11-16T08:48:48.163Z,10.68
2022-11-16T08:51:19.957Z,10.58
2022-11-16T08:53:58.502Z,10.73
2022-11-16T08:56:27.732Z,10.52
2022-11-16T08:58:58.367Z,10.42
2022-11-16T09:01:30.262Z,10.57
2022-11-16T09:03:57.390Z,10.52
2022-11-16T09:06:26.260Z,10.56
2022-11-16T09:08:53.431Z,10.53
2022-11-16T09:11:22.866Z,10.56
2022-11-16T09:13:52.018Z,10.54
2022-11-16T09:16:21.198Z,10.48
2022-11-16T09:18:52.221Z,10.64
2022-11-16T09:21:21.293Z,11.01
2022-11-16T09:23:49.253Z,10.90
2022-11-16T09:26:19.098Z,11.08
2022-11-16T09:28:46.106Z,11.36
2022-11-16T09:31:14.179Z,11.25
2022-11-16T09:33:43.500Z,11.67
2022-11-16T09:36:13.685Z,11.46
2022-11-16T09:42:01.189Z,11.14
2022-11-16T09:44:28.392Z,11.23
2022-11-16T09:47:00.058Z,11.14
2022-11-16T09:49:33.453Z,11.40
2022-11-16T09:52:03.675Z,11.19
2022-11-16T09:54:35.817Z,10.98
2022-11-16T09:57:12.242Z,11.40
2022-11-16T09:59:49.881Z,11.77
2022-11-16T10:02:28.623Z,12.01
2022-11-16T10:05:07.875Z,12.43
2022-11-16T10:07:42.311Z,12.47
2022-11-16T10:10:28.907Z,12.11
2022-11-16T10:13:00.999Z,12.19
2022-11-16T10:15:55.798Z,12.14
2022-11-16T10:18:27.632Z,12.04
2022-11-16T10:21:08.742Z,12.33
2022-11-16T10:23:51.069Z,11.88
2022-11-16T10:26:36.802Z,11.75
2022-11-16T10:29:13.381Z,11.53
2022-11-16T10:32:02.461Z,11.40
2022-11-16T10:34:38.450Z,11.48
2022-11-16T10:37:08.706Z,11.75
2022-11-16T10:39:40.548Z,11.40
2022-11-16T10:42:14.486Z,11.75
2022-11-16T10:45:00.056Z,12.14
2022-11-16T10:47:42.872Z,12.55
2022-11-16T10:50:32.037Z,12.43
2022-11-16T10:53:00.462Z,12.56
2022-11-16T10:55:31.039Z,12.33
2022-11-16T10:58:05.820Z,12.51
2022-11-16T11:00:39.265Z,12.11
2022-11-16T11:03:06.828Z,12.21
2022-11-16T11:05:35.847Z,12.52
2022-11-16T11:08:10.329Z,12.44
2022-11-16T11:10:40.012Z,12.32
2022-11-16T11:13:10.323Z,12.18
2022-11-16T11:15:41.325Z,12.25
2022-11-16T11:18:24.744Z,12.33
2022-11-16T11:21:17.400Z,12.84
2022-11-16T11:23:53.138Z,12.94
2022-11-16T11:26:36.651Z,12.67
2022-11-16T11:29:24.447Z,12.75
2022-11-16T11:32:00.455Z,12.98
2022-11-16T11:34:30.273Z,12.97
2022-11-16T11:37:01.416Z,13.14
2022-11-16T11:39:34.778Z,13.50
2022-11-16T11:42:01.912Z,13.73
2022-11-16T11:44:37.953Z,13.37
2022-11-16T11:50:25.226Z,13.82
2022-11-16T11:53:26.135Z,13.75
2022-11-16T11:55:59.038Z,14.32
2022-11-16T11:58:31.069Z,14.70
2022-11-16T12:01:25.782Z,14.18
2022-11-16T12:04:08.119Z,13.74
2022-11-16T12:06:44.325Z,14.09
2022-11-16T12:09:23.137Z,13.56
2022-11-16T12:12:18.269Z,13.59
2022-11-16T12:15:03.484Z,13.21
2022-11-16T12:17:51.728Z,13.31
2022-11-16T12:20:56.461Z,13.17
2022-11-16T12:23:57.661Z,13.36
2022-11-16T12:26:58.835Z,13.02
2022-11-16T12:29:27.955Z,12.92
2022-11-16T12:32:25.600Z,13.08
2022-11-16T12:35:02.183Z,13.13
2022-11-16T12:38:07.643Z,13.29
2022-11-16T12:40:50.483Z,13.31
2022-11-16T12:43:31.217Z,13.38
2022-11-16T12:46:06.530Z,13.28
2022-11-16T12:48:55.270Z,13.20
2022-11-16T12:51:40.912Z,13.20
2022-11-16T12:54:36.342Z,13.30
2022-11-16T12:57:18.939Z,13.50
2022-11-16T13:00:02.748Z,13.29
2022-11-16T13:02:55.136Z,12.84
2022-11-16T13:05:28.425Z,12.69
2022-11-16T13:08:03.090Z,12.69
2022-11-16T13:10:35.901Z,12.84
2022-11-16T13:13:35.361Z,12.80
2022-11-16T13:16:01.206Z,12.77
2022-11-16T13:18:30.051Z,12.82
2022-11-16T13:21:15.231Z,12.60
2022-11-16T13:24:07.719Z,12.58
2022-11-16T13:26:56.944Z,12.72
2022-11-16T13:29:40.984Z,12.97
2022-11-16T13:32:32.959Z,12.80
2022-11-16T13:35:01.232Z,12.71
2022-11-16T13:37:37.668Z,12.50
2022-11-16T13:40:04.869Z,12.39
2022-11-16T13:42:34.625Z,12.31
2022-11-16T13:45:17.989Z,12.27
2022-11-16T13:47:58.879Z,12.33
2022-11-16T13:50:37.534Z,12.31
2022-11-16T13:56:04.825Z,12.21
2022-11-16T13:58:34.112Z,12.21
2022-11-16T14:01:11.107Z,12.26
2022-11-16T14:03:40.405Z,12.42
2022-11-16T14:06:13.568Z,12.37
2022-11-16T14:08:40.532Z,12.46
2022-11-16T14:11:40.048Z,12.68
2022-11-16T14:14:11.915Z,12.71
2022-11-16T14:16:47.651Z,12.44
2022-11-16T14:19:47.924Z,12.41
2022-11-16T14:22:33.094Z,12.22
2022-11-16T14:25:14.365Z,12.20
2022-11-16T14:27:52.855Z,12.29
2022-11-16T14:30:24.844Z,12.17
2022-11-16T14:32:54.767Z,12.00
2022-11-16T14:35:28.341Z,11.99
2022-11-16T14:38:05.074Z,11.93
2022-11-16T14:40:45.466Z,11.85
2022-11-16T14:43:21.207Z,11.73
2022-11-16T14:45:54.242Z,11.63
2022-11-16T14:48:26.025Z,11.66
2022-11-16T14:51:16.722Z,11.65
2022-11-16T14:53:50.714Z,11.59
2022-11-16T14:56:18.999Z,11.64
2022-11-16T14:58:52.216Z,11.57
2022-11-16T15:01:21.052Z,11.54
2022-11-16T15:03:55.916Z,11.57
2022-11-16T15:06:25.035Z,11.44
2022-11-16T15:08:57.663Z,11.47
2022-11-16T15:11:50.070Z,11.59
2022-11-16T15:14:24.741Z,11.49
2022-11-16T15:16:54.414Z,11.57
2022-11-16T15:19:22.501Z,11.45
2022-11-16T15:21:55.226Z,11.47
2022-11-16T15:24:31.295Z,11.54
2022-11-16T15:27:09.156Z,11.44
2022-11-16T15:29:36.539Z,11.45
2022-11-16T15:32:04.847Z,11.34
2022-11-16T15:34:32.522Z,11.32
2022-11-16T15:36:59.751Z,11.32
2022-11-16T15:39:30.631Z,11.15
2022-11-16T15:42:03.447Z,11.23
2022-11-16T15:44:32.048Z,11.04
2022-11-16T15:46:59.606Z,10.99
2022-11-16T15:49:30.494Z,10.89
2022-11-16T15:51:59.621Z,10.92
2022-11-16T15:54:53.388Z,10.92
2022-11-16T15:57:23.320Z,10.88
2022-11-16T15:59:56.880Z,10.87
2022-11-16T16:02:27.771Z,10.81
2022-11-16T16:04:54.953Z,10.70
2022-11-16T16:07:39.802Z,10.80
2022-11-16T16:10:19.862Z,10.83
2022-11-16T16:12:52.173Z,10.85
2022-11-16T16:15:23.325Z,10.74
2022-11-16T16:17:51.298Z,10.82
2022-11-16T16:20:22.008Z,10.87
2022-11-16T16:22:49.396Z,10.74
2022-11-16T16:25:34.372Z,10.63
2022-11-16T16:28:02.422Z,10.47
2022-11-16T16:30:30.758Z,10.35
2022-11-16T16:32:58.341Z,10.33
2022-11-16T16:35:26.320Z,10.23
2022-11-16T16:38:01.299Z,10.24
2022-11-16T16:40:29.156Z,10.09
2022-11-16T16:42:56.982Z,10.00
2022-11-16T16:45:39.368Z,9.96
2022-11-16T16:48:07.025Z,9.95
2022-11-16T16:50:34.284Z,9.92
2022-11-16T16:53:01.360Z,9.74
2022-11-16T16:55:31.684Z,9.67
2022-11-16T16:58:03.031Z,9.67
2022-11-16T17:00:30.120Z,9.50
2022-11-16T17:02:58.624Z,9.46
2022-11-16T17:05:26.679Z,9.34
2022-11-16T17:07:56.977Z,9.33
2022-11-16T17:10:24.742Z,9.20
2022-11-16T17:12:59.227Z,9.33
2022-11-16T17:15:26.255Z,9.23
2022-11-16T17:17:55.700Z,9.16
2022-11-16T17:20:22.895Z,9.11
2022-11-16T17:22:49.826Z,9.04
2022-11-16T17:25:16.923Z,8.92
2022-11-16T17:27:43.886Z,8.82
2022-11-16T17:30:11.577Z,8.65
2022-11-16T17:32:38.582Z,8.72
2022-11-16T17:35:05.696Z,8.75
2022-11-16T17:37:32.903Z,8.59
2022-11-16T17:39:59.899Z,8.59
2022-11-16T17:42:26.954Z,8.66
2022-11-16T17:44:55.389Z,8.73
2022-11-16T17:47:22.495Z,8.75
2022-11-16T17:49:49.544Z,8.71
2022-11-16T17:52:16.965Z,8.68
2022-11-16T17:54:44.084Z,8.61
2022-11-16T17:57:11.055Z,8.61
2022-11-16T17:59:38.244Z,8.55
2022-11-16T18:02:05.473Z,8.43
2022-11-16T18:04:32.564Z,8.37
2022-11-16T18:07:00.907Z,8.37
2022-11-16T18:09:28.214Z,8.39
2022-11-16T18:11:55.353Z,8.36
2022-11-16T18:14:22.338Z,8.34
2022-11-16T18:16:49.735Z,8.17
2022-11-16T18:19:20.211Z,8.10
2022-11-16T18:21:48.337Z,8.12
2022-11-16T18:24:15.563Z,8.25
2022-11-16T18:26:42.817Z,8.09
2022-11-16T18:29:12.951Z,8.17
2022-11-16T18:31:39.969Z,8.11
2022-11-16T18:34:06.984Z,8.01
2022-11-16T18:36:34.136Z,8.27
2022-11-16T18:39:01.220Z,8.31
2022-11-16T18:41:29.934Z,8.41
2022-11-16T18:43:59.864Z,8.46
2022-11-16T18:46:31.195Z,8.50
2022-11-16T18:48:58.736Z,8.59
2022-11-16T18:51:27.581Z,8.57
2022-11-16T18:53:57.691Z,8.52
2022-11-16T18:56:25.523Z,8.57
2022-11-16T18:58:53.407Z,8.59
2022-11-16T19:01:23.807Z,8.65
2022-11-16T19:03:55.135Z,8.64
2022-11-16T19:06:23.358Z,8.75
2022-11-16T19:09:00.235Z,8.73
2022-11-16T19:11:28.724Z,9.00
2022-11-16T19:14:09.063Z,8.87
2022-11-16T19:16:36.278Z,8.88
2022-11-16T19:19:03.859Z,8.92
2022-11-16T19:21:34.131Z,8.95
2022-11-16T19:24:01.330Z,9.11
2022-11-16T19:26:28.706Z,9.04
2022-11-16T19:28:55.880Z,8.95
2022-11-16T19:31:26.108Z,8.98
2022-11-16T19:33:55.364Z,8.92
2022-11-16T19:36:23.216Z,8.88
2022-11-16T19:38:50.415Z,8.85
2022-11-16T19:41:21.517Z,8.83
2022-11-16T19:43:51.500Z,8.86
2022-11-16T19:46:23.377Z,8.78
2022-11-16T19:48:51.412Z,8.68
2022-11-16T19:51:24.890Z,8.71
2022-11-16T19:53:52.438Z,8.77
2022-11-16T19:56:21.663Z,8.81
2022-11-16T19:58:49.028Z,8.74
2022-11-16T20:01:26.376Z,8.85
2022-11-16T20:03:54.900Z,8.96
2022-11-16T20:06:40.867Z,8.96
2022-11-16T20:09:12.116Z,8.93
2022-11-16T20:11:41.291Z,8.97
2022-11-16T20:14:10.872Z,8.93
2022-11-16T20:16:42.680Z,9.06
2022-11-16T20:19:10.595Z,8.97
2022-11-16T20:21:40.116Z,8.96
2022-11-16T20:24:11.406Z,8.94
2022-11-16T20:26:43.749Z,8.95
2022-11-16T20:29:12.175Z,8.86
2022-11-16T20:31:42.856Z,8.83
2022-11-16T20:34:14.363Z,8.78
2022-11-16T20:36:43.829Z,8.79
2022-11-16T20:39:19.206Z,8.80
2022-11-16T20:41:46.996Z,8.75
2022-11-16T20:44:22.280Z,8.67
2022-11-16T20:46:52.306Z,8.64
2022-11-16T20:49:19.446Z,8.73
2022-11-16T20:51:47.867Z,8.80
2022-11-16T20:54:15.279Z,8.74
2022-11-16T20:56:42.369Z,8.72
2022-11-16T20:59:09.506Z,8.63
2022-11-16T21:01:36.908Z,8.64
2022-11-16T21:04:05.653Z,8.58
2022-11-16T21:06:33.239Z,8.62
2022-11-16T21:09:00.849Z,8.59
2022-11-16T21:11:30.409Z,8.64
2022-11-16T21:14:15.766Z,8.71
2022-11-16T21:16:42.832Z,8.74
2022-11-16T21:19:10.155Z,8.68
2022-11-16T21:21:38.304Z,8.70
2022-11-16T21:24:05.517Z,8.77
2022-11-16T21:26:33.882Z,8.73
2022-11-16T21:29:02.135Z,8.93
2022-11-16T21:31:31.619Z,8.86
2022-11-16T21:34:00.928Z,8.96
2022-11-16T21:36:30.822Z,8.85
2022-11-16T21:39:00.676Z,8.86
2022-11-16T21:41:27.977Z,8.85
2022-11-16T21:43:55.340Z,8.85
2022-11-16T21:46:26.976Z,8.86
2022-11-16T21:48:56.824Z,8.88
2022-11-16T21:51:26.462Z,8.90
2022-11-16T21:53:53.433Z,8.97
2022-11-16T21:56:25.474Z,8.96
2022-11-16T21:58:53.569Z,9.08
2022-11-16T22:01:21.640Z,9.05
2022-11-16T22:04:08.949Z,9.08
2022-11-16T22:06:54.308Z,9.09
2022-11-16T22:09:21.353Z,9.07
2022-11-16T22:11:48.290Z,9.03
2022-11-16T22:14:15.261Z,9.11
2022-11-16T22:16:42.264Z,9.12
2022-11-16T22:19:09.239Z,9.11
2022-11-16T22:21:36.198Z,9.10
2022-11-16T22:24:03.163Z,9.12
2022-11-16T22:26:30.236Z,9.08
2022-11-16T22:28:58.581Z,9.05
2022-11-16T22:31:25.600Z,9.04
2022-11-16T22:33:53.925Z,9.05
2022-11-16T22:36:21.073Z,9.02
2022-11-16T22:38:48.269Z,9.04
2022-11-16T22:41:15.402Z,9.08
2022-11-16T22:43:42.739Z,9.11
2022-11-16T22:46:10.915Z,9.17
2022-11-16T22:48:39.955Z,9.21
2022-11-16T22:51:15.490Z,9.20
2022-11-16T22:53:42.431Z,9.17
2022-11-16T22:56:10.514Z,9.32
2022-11-16T22:58:38.510Z,9.27
2022-11-16T23:01:07.947Z,9.24
2022-11-16T23:03:35.754Z,9.47
2022-11-16T23:06:04.085Z,9.38
2022-11-16T23:08:31.673Z,9.45
2022-11-16T23:11:24.034Z,9.43
2022-11-16T23:14:13.041Z,9.58
2022-11-16T23:16:40.966Z,9.55
2022-11-16T23:19:31.374Z,9.49
2022-11-16T23:22:17.786Z,9.46
2022-11-16T23:25:03.731Z,9.47
2022-11-16T23:27:42.794Z,9.38
2022-11-16T23:30:13.124Z,9.38
2022-11-16T23:32:41.399Z,9.42
2022-11-16T23:35:09.836Z,9.45
2022-11-16T23:38:10.091Z,9.48
2022-11-16T23:40:39.483Z,9.34
2022-11-16T23:43:44.745Z,9.28
2022-11-16T23:46:14.431Z,9.35
2022-11-16T23:48:41.357Z,9.28
2022-11-16T23:51:08.266Z,9.28
2022-11-16T23:53:35.528Z,9.23
2022-11-16T23:56:05.936Z,9.28
2022-11-16T23:58:33.296Z,9.29
